Time;durP1;ratioP1;P1;durP2;ratioP2;P2;SDS_P1;SDS_P2;PMS_P1;PMS_P2;Temp;Humidity;BMP_temperature;BMP_pressure;BME280_temperature;BME280_humidity;BME280_pressure;Samples;Min_cycle;Max_cycle;Signal;HPM_P1;HPM_P2
2021/01/05 00:02:17;;;;;;;3.58;2.58;;;2.50;99.90;;;;;;5023464;28;20036;-89
2021/01/05 00:04:45;;;;;;;7.28;3.50;;;2.50;99.90;;;;;;5020665;28;20034;-90
2021/01/05 00:07:12;;;;;;;9.50;3.85;;;2.50;99.90;;;;;;5012725;28;20538;-92
2021/01/05 00:09:38;;;;;;;8.65;3.88;;;2.60;99.90;;;;;;5023209;28;20037;-89
2021/01/05 00:12:07;;;;;;;12.38;3.72;;;2.60;99.90;;;;;;5028254;28;20041;-89
2021/01/05 00:14:34;;;;;;;8.38;3.53;;;2.60;99.90;;;;;;5022309;28;20052;-90
2021/01/05 00:17:00;;;;;;;8.60;3.65;;;2.60;99.90;;;;;;5030169;28;20037;-90
2021/01/05 00:19:26;;;;;;;4.20;2.58;;;2.60;99.90;;;;;;5028028;28;20041;-88
2021/01/05 00:21:53;;;;;;;5.47;3.38;;;2.60;99.90;;;;;;5028703;28;20128;-89
2021/01/05 00:24:19;;;;;;;10.13;3.92;;;2.70;99.90;;;;;;5012091;28;20083;-89
2021/01/05 00:26:45;;;;;;;5.22;2.90;;;2.70;99.90;;;;;;5019988;28;20038;-90
2021/01/05 00:29:12;;;;;;;13.00;3.72;;;2.60;99.90;;;;;;5000194;28;20084;-88
2021/01/05 00:31:38;;;;;;;8.02;3.67;;;2.70;99.90;;;;;;5016281;28;20032;-88
2021/01/05 00:34:05;;;;;;;6.00;2.90;;;2.60;99.90;;;;;;5029153;28;20986;-91
2021/01/05 00:36:31;;;;;;;14.00;3.80;;;2.60;99.90;;;;;;5019824;28;20475;-89
2021/01/05 00:38:57;;;;;;;7.72;3.13;;;2.60;99.90;;;;;;5027928;28;20045;-90
2021/01/05 00:41:23;;;;;;;9.68;3.40;;;2.60;99.90;;;;;;5010137;28;20057;-88
2021/01/05 00:43:49;;;;;;;6.45;3.33;;;2.60;99.90;;;;;;5005311;28;20087;-89
2021/01/05 00:46:19;;;;;;;7.97;3.00;;;2.70;99.90;;;;;;5029488;28;20041;-89
2021/01/05 00:48:46;;;;;;;9.37;3.57;;;2.70;99.90;;;;;;5028900;28;20536;-89
2021/01/05 00:51:13;;;;;;;6.03;3.47;;;2.60;99.90;;;;;;5029246;28;20311;-89
2021/01/05 00:53:39;;;;;;;8.35;4.07;;;2.60;99.90;;;;;;5028675;28;20041;-88
2021/01/05 00:56:06;;;;;;;9.60;2.88;;;2.60;99.90;;;;;;5011612;28;20493;-89
2021/01/05 00:58:31;;;;;;;12.80;3.60;;;2.60;99.90;;;;;;5028536;28;20449;-88
2021/01/05 01:00:57;;;;;;;7.20;3.35;;;2.60;99.90;;;;;;5002841;28;20183;-88
2021/01/05 01:03:23;;;;;;;4.90;3.08;;;2.60;99.90;;;;;;4991476;28;20053;-88
2021/01/05 01:05:49;;;;;;;10.10;3.33;;;2.60;99.90;;;;;;5020264;28;20073;-89
2021/01/05 01:08:18;;;;;;;9.23;3.28;;;2.50;99.90;;;;;;5027316;28;20037;-89
2021/01/05 01:10:44;;;;;;;4.63;2.42;;;2.50;99.90;;;;;;5011013;28;20114;-89
2021/01/05 01:13:11;;;;;;;4.50;3.22;;;2.50;99.90;;;;;;5011237;28;20103;-88
2021/01/05 01:15:37;;;;;;;6.28;3.70;;;2.50;99.90;;;;;;5008940;28;20044;-89
2021/01/05 01:18:05;;;;;;;9.52;4.13;;;2.60;99.90;;;;;;5008102;28;20088;-89
2021/01/05 01:20:32;;;;;;;7.43;4.10;;;2.60;99.90;;;;;;5037612;28;20034;-88
2021/01/05 01:22:59;;;;;;;6.35;4.25;;;2.60;99.90;;;;;;5017615;28;20045;-88
2021/01/05 01:25:25;;;;;;;8.60;3.72;;;2.50;99.90;;;;;;5022452;28;20050;-87
2021/01/05 01:27:51;;;;;;;8.77;3.50;;;2.60;99.90;;;;;;5027614;28;20045;-88
2021/01/05 01:30:19;;;;;;;10.77;4.22;;;2.60;99.90;;;;;;5027455;28;20108;-87
2021/01/05 01:32:45;;;;;;;9.27;4.80;;;2.60;99.90;;;;;;5033346;28;20184;-86
2021/01/05 01:35:11;;;;;;;11.65;4.40;;;2.60;99.90;;;;;;5026830;28;20034;-87
2021/01/05 01:37:37;;;;;;;11.13;4.78;;;2.60;99.90;;;;;;4995475;28;20073;-87
2021/01/05 01:40:05;;;;;;;8.45;4.25;;;2.60;99.90;;;;;;4995827;28;20065;-88
2021/01/05 01:42:31;;;;;;;8.55;4.38;;;2.70;99.90;;;;;;5011691;28;20042;-88
2021/01/05 01:44:57;;;;;;;9.30;4.40;;;2.70;99.90;;;;;;5009360;28;20044;-87
2021/01/05 01:47:30;;;;;;;12.43;5.57;;;2.70;99.90;;;;;;5018841;28;20033;-87
2021/01/05 01:50:03;;;;;;;10.82;5.07;;;2.80;99.90;;;;;;5031764;28;20041;-88
2021/01/05 01:52:47;;;;;;;17.67;5.22;;;2.80;99.90;;;;;;5031081;28;20132;-88
2021/01/05 01:55:45;;;;;;;13.40;4.82;;;2.80;99.90;;;;;;5029771;28;20041;-88
2021/01/05 01:58:38;;;;;;;7.70;3.13;;;2.80;99.90;;;;;;5012175;28;20038;-87
2021/01/05 02:01:25;;;;;;;10.43;3.63;;;2.90;99.90;;;;;;5028702;28;20084;-87
2021/01/05 02:04:19;;;;;;;9.27;5.90;;;2.90;99.90;;;;;;5015638;28;20088;-88
2021/01/05 02:06:48;;;;;;;7.80;5.03;;;3.00;99.90;;;;;;4983305;28;20144;-88
2021/01/05 02:09:51;;;;;;;10.18;5.10;;;3.00;99.90;;;;;;5012754;28;20119;-87
2021/01/05 02:12:36;;;;;;;9.57;4.82;;;3.00;99.90;;;;;;5024284;28;20056;-89
2021/01/05 02:15:28;;;;;;;10.13;4.63;;;3.00;99.90;;;;;;5011756;28;20030;-88
2021/01/05 02:18:03;;;;;;;14.20;5.05;;;3.10;99.90;;;;;;5009412;28;20053;-88
2021/01/05 02:20:43;;;;;;;9.05;4.68;;;3.00;99.90;;;;;;5019329;28;20479;-89
2021/01/05 02:23:30;;;;;;;8.68;4.18;;;3.00;99.90;;;;;;5024694;28;20048;-88
2021/01/05 02:26:28;;;;;;;12.15;4.30;;;3.00;99.90;;;;;;5011950;28;20071;-89
2021/01/05 02:29:03;;;;;;;8.50;4.60;;;3.00;99.90;;;;;;5010810;28;20041;-87
2021/01/05 02:31:47;;;;;;;13.75;5.00;;;3.00;99.90;;;;;;5013552;28;20045;-87
2021/01/05 02:34:40;;;;;;;10.95;5.03;;;3.10;99.90;;;;;;5012575;28;20042;-87
2021/01/05 02:37:15;;;;;;;8.10;4.13;;;3.10;99.90;;;;;;5020708;28;20042;-86
2021/01/05 02:40:12;;;;;;;12.57;4.60;;;3.10;99.90;;;;;;5014691;28;20073;-87
2021/01/05 02:42:51;;;;;;;7.13;4.10;;;3.10;99.90;;;;;;5010388;28;20120;-86
2021/01/05 02:45:18;;;;;;;8.40;4.30;;;3.10;99.90;;;;;;5012274;28;20045;-87
2021/01/05 02:48:08;;;;;;;9.98;4.65;;;3.00;99.90;;;;;;5011257;28;20058;-88
2021/01/05 02:51:13;;;;;;;8.20;3.83;;;3.10;99.90;;;;;;5011084;28;20029;-86
2021/01/05 02:53:58;;;;;;;8.32;4.25;;;3.10;99.90;;;;;;5015421;28;20105;-87
2021/01/05 02:57:08;;;;;;;9.90;3.97;;;3.10;99.90;;;;;;5011754;28;20045;-87
2021/01/05 02:59:52;;;;;;;;;;;3.20;99.90;;;;;;4971426;28;20399;-86
2021/01/05 03:02:46;;;;;;;7.97;3.95;;;3.10;99.90;;;;;;5028467;28;19917;-87
2021/01/05 03:05:12;;;;;;;4.53;3.55;;;3.10;99.90;;;;;;5011390;28;20053;-86
2021/01/05 03:07:38;;;;;;;7.70;3.20;;;3.10;99.90;;;;;;5018201;28;20072;-87
2021/01/05 03:10:32;;;;;;;8.90;4.03;;;3.10;99.90;;;;;;5015604;28;20483;-87
2021/01/05 03:13:07;;;;;;;4.32;2.90;;;3.10;99.90;;;;;;5024426;28;20053;-88
2021/01/05 03:15:55;;;;;;;7.25;3.38;;;3.10;99.90;;;;;;5024117;28;20048;-86
2021/01/05 03:18:59;;;;;;;5.18;3.10;;;3.10;99.90;;;;;;5015937;28;20046;-88
2021/01/05 03:21:38;;;;;;;10.20;3.72;;;3.10;99.90;;;;;;5012567;28;20072;-86
2021/01/05 03:24:07;;;;;;;7.25;2.95;;;3.10;99.90;;;;;;5009939;28;20068;-86
2021/01/05 03:26:40;;;;;;;6.95;2.92;;;3.10;99.90;;;;;;5009884;28;20034;-87
2021/01/05 03:29:07;;;;;;;5.32;3.50;;;3.10;99.90;;;;;;5011434;28;20038;-88
2021/01/05 03:31:53;;;;;;;7.90;3.65;;;3.10;99.90;;;;;;5010129;28;20475;-87
2021/01/05 03:34:19;;;;;;;7.75;4.05;;;3.10;99.90;;;;;;5024716;28;20029;-88
2021/01/05 03:36:46;;;;;;;6.45;3.92;;;3.10;99.90;;;;;;4994798;28;20038;-87
2021/01/05 03:39:11;;;;;;;6.10;3.38;;;3.10;99.90;;;;;;5009962;28;20068;-88
2021/01/05 03:41:37;;;;;;;4.85;3.65;;;3.10;99.90;;;;;;5027658;28;20466;-86
2021/01/05 03:44:04;;;;;;;7.78;3.45;;;3.10;99.90;;;;;;5029219;28;20052;-88
2021/01/05 03:46:30;;;;;;;5.13;3.35;;;3.10;99.90;;;;;;5027004;28;20048;-86
2021/01/05 03:48:57;;;;;;;6.38;3.05;;;3.10;99.90;;;;;;5017642;28;20120;-88
2021/01/05 03:51:23;;;;;;;5.28;3.22;;;3.10;99.90;;;;;;5025373;28;20034;-88
2021/01/05 03:53:48;;;;;;;1.95;1.83;;;3.10;99.90;;;;;;5014939;28;20042;-87
2021/01/05 03:56:14;;;;;;;9.05;3.78;;;3.10;99.90;;;;;;5017832;28;20479;-88
2021/01/05 03:58:40;;;;;;;4.32;2.22;;;3.10;99.90;;;;;;5009720;28;20092;-86
2021/01/05 04:01:06;;;;;;;5.05;3.30;;;3.00;99.90;;;;;;5020406;28;20087;-88
2021/01/05 04:03:31;;;;;;;7.97;3.10;;;3.00;99.90;;;;;;5012090;28;20466;-89
2021/01/05 04:05:57;;;;;;;7.97;3.20;;;3.10;99.90;;;;;;5017444;28;20030;-89
2021/01/05 04:08:23;;;;;;;7.43;2.60;;;3.00;99.90;;;;;;5029049;28;20114;-87
2021/01/05 04:10:49;;;;;;;7.22;2.47;;;3.00;99.90;;;;;;5008442;28;20042;-87
2021/01/05 04:13:15;;;;;;;8.88;2.45;;;3.00;99.90;;;;;;5021631;28;20095;-88
2021/01/05 04:15:41;;;;;;;6.75;3.08;;;3.00;99.90;;;;;;5011754;28;20037;-86
2021/01/05 04:18:08;;;;;;;7.72;3.42;;;3.00;99.90;;;;;;5030199;28;20364;-86
2021/01/05 04:20:35;;;;;;;5.25;2.95;;;3.00;99.90;;;;;;5030020;28;20037;-87
2021/01/05 04:23:01;;;;;;;5.85;3.05;;;3.10;99.90;;;;;;5028673;28;20055;-87
2021/01/05 04:25:28;;;;;;;6.07;2.50;;;3.10;99.90;;;;;;5029866;28;20047;-87
2021/01/05 04:27:54;;;;;;;4.72;2.58;;;3.10;99.90;;;;;;5027595;28;20124;-88
2021/01/05 04:30:20;;;;;;;3.38;3.08;;;3.10;99.90;;;;;;5029947;28;20382;-86
2021/01/05 04:32:46;;;;;;;7.43;2.70;;;3.10;99.90;;;;;;5028775;28;20045;-88
2021/01/05 04:35:12;;;;;;;7.78;2.30;;;3.10;99.90;;;;;;5028705;28;20041;-88
2021/01/05 04:37:38;;;;;;;5.25;1.33;;;3.10;99.90;;;;;;5028284;28;20043;-87
2021/01/05 04:40:05;;;;;;;6.55;2.55;;;3.10;99.90;;;;;;5028850;28;20470;-89
2021/01/05 04:43:04;;;;;;;5.13;2.80;;;3.00;99.90;;;;;;5015236;28;20057;-88
2021/01/05 04:45:32;;;;;;;6.18;2.58;;;3.10;99.90;;;;;;5018513;28;20116;-87
2021/01/05 04:48:24;;;;;;;8.15;3.38;;;3.00;99.90;;;;;;5028564;28;20090;-88
2021/01/05 04:50:57;;;;;;;3.90;2.70;;;3.00;99.90;;;;;;5024236;28;20038;-88
2021/01/05 04:53:29;;;;;;;12.18;2.33;;;3.00;99.90;;;;;;5026255;28;20497;-89
2021/01/05 04:56:07;;;;;;;7.90;3.13;;;3.00;99.90;;;;;;5027784;28;20501;-88
2021/01/05 04:58:50;;;;;;;6.82;3.20;;;3.00;99.90;;;;;;5029237;28;20052;-88
2021/01/05 05:01:32;;;;;;;6.85;3.50;;;3.00;99.90;;;;;;5033504;28;20053;-88
2021/01/05 05:04:16;;;;;;;9.60;3.90;;;3.00;99.90;;;;;;5015183;28;20075;-89
2021/01/05 05:06:57;;;;;;;6.47;3.30;;;3.00;99.90;;;;;;5027706;28;20064;-87
2021/01/05 05:09:44;;;;;;;10.93;3.72;;;2.90;99.90;;;;;;5024402;28;20101;-88
2021/01/05 05:12:28;;;;;;;7.03;3.38;;;3.00;99.90;;;;;;5009253;28;20041;-88
2021/01/05 05:15:06;;;;;;;5.15;3.42;;;3.00;99.90;;;;;;5016389;28;20120;-89
2021/01/05 05:17:51;;;;;;;6.18;3.53;;;3.00;99.90;;;;;;5025375;28;20038;-88
2021/01/05 05:20:19;;;;;;;10.43;3.92;;;3.00;99.90;;;;;;5018777;28;20049;-87
2021/01/05 05:23:21;;;;;;;6.53;3.63;;;3.00;99.90;;;;;;5008261;28;20456;-86
2021/01/05 05:25:58;;;;;;;9.77;3.20;;;3.00;99.90;;;;;;5008065;28;20038;-87
2021/01/05 05:28:34;;;;;;;5.88;3.30;;;3.00;99.90;;;;;;5009247;28;20116;-87
2021/01/05 05:31:03;;;;;;;8.18;4.18;;;3.00;99.90;;;;;;5008907;28;20041;-89
2021/01/05 05:33:35;;;;;;;9.68;3.42;;;3.00;99.90;;;;;;5007825;28;20030;-87
2021/01/05 05:36:13;;;;;;;7.25;3.95;;;3.00;99.90;;;;;;5020968;28;20076;-87
2021/01/05 05:39:10;;;;;;;8.75;3.13;;;3.00;99.90;;;;;;5015164;28;20057;-89
2021/01/05 05:42:13;;;;;;;6.75;3.70;;;3.00;99.90;;;;;;5009335;28;20052;-88
2021/01/05 05:44:58;;;;;;;4.00;2.47;;;3.00;99.90;;;;;;5022580;28;20483;-89
2021/01/05 05:47:33;;;;;;;5.53;2.83;;;3.00;99.90;;;;;;5018293;28;20095;-89
2021/01/05 05:50:14;;;;;;;4.70;2.70;;;3.00;99.90;;;;;;5023424;28;20033;-88
2021/01/05 05:52:45;;;;;;;6.50;3.47;;;3.00;99.90;;;;;;5007904;28;20038;-89
2021/01/05 05:55:39;;;;;;;6.78;3.40;;;3.00;99.90;;;;;;5025286;28;20109;-90
2021/01/05 05:58:06;;;;;;;7.20;3.47;;;3.00;99.90;;;;;;5026907;28;20049;-87
2021/01/05 06:00:35;;;;;;;12.27;4.53;;;3.10;99.90;;;;;;5013804;28;20065;-87
2021/01/05 06:03:03;;;;;;;8.20;3.05;;;3.10;99.90;;;;;;5021931;28;20057;-88
2021/01/05 06:05:31;;;;;;;5.38;3.47;;;3.10;99.90;;;;;;5027310;28;20045;-88
2021/01/05 06:07:57;;;;;;;6.45;2.78;;;3.10;99.90;;;;;;5026712;28;20034;-88
2021/01/05 06:10:24;;;;;;;8.70;3.38;;;3.10;99.90;;;;;;5026753;28;20065;-88
2021/01/05 06:12:51;;;;;;;8.95;4.47;;;3.10;99.90;;;;;;5014425;28;20038;-86
2021/01/05 06:15:17;;;;;;;11.32;3.80;;;3.10;99.90;;;;;;5004037;28;20050;-87
2021/01/05 06:17:44;;;;;;;8.15;3.60;;;3.10;99.90;;;;;;5031271;28;20037;-88
2021/01/05 06:20:10;;;;;;;7.55;4.05;;;3.10;99.90;;;;;;5030485;28;20041;-88
2021/01/05 06:22:36;;;;;;;12.45;4.03;;;3.20;99.90;;;;;;5038063;28;20068;-88
2021/01/05 06:25:03;;;;;;;5.93;3.88;;;3.10;99.90;;;;;;5018020;28;20065;-87
2021/01/05 06:27:29;;;;;;;4.88;3.40;;;3.10;99.90;;;;;;5033351;28;20079;-87
2021/01/05 06:29:55;;;;;;;5.57;3.53;;;3.10;99.90;;;;;;5000155;28;20124;-89
2021/01/05 06:32:21;;;;;;;6.15;3.35;;;3.10;99.90;;;;;;5029198;28;20446;-87
2021/01/05 06:34:47;;;;;;;14.20;3.50;;;3.20;99.90;;;;;;5030351;28;20431;-88
2021/01/05 06:37:13;;;;;;;6.57;3.55;;;3.10;99.90;;;;;;5035042;28;20034;-87
2021/01/05 06:39:38;;;;;;;7.72;3.72;;;3.10;99.90;;;;;;5014981;28;20065;-87
2021/01/05 06:42:04;;;;;;;8.98;3.17;;;3.10;99.90;;;;;;5029915;28;20402;-87
2021/01/05 06:44:30;;;;;;;6.80;3.30;;;3.10;99.90;;;;;;5030224;28;20036;-87
2021/01/05 06:46:56;;;;;;;8.75;3.33;;;3.10;99.90;;;;;;5029910;28;20037;-87
2021/01/05 06:49:26;;;;;;;7.97;2.92;;;3.10;99.90;;;;;;5030393;28;20037;-88
2021/01/05 06:51:53;;;;;;;9.02;3.13;;;3.10;99.90;;;;;;5031220;28;20037;-86
2021/01/05 06:54:20;;;;;;;7.43;3.50;;;3.10;99.90;;;;;;5031826;28;20034;-89
2021/01/05 06:56:56;;;;;;;6.70;2.65;;;3.20;99.90;;;;;;5030586;28;20037;-89
2021/01/05 06:59:23;;;;;;;4.43;2.53;;;3.20;99.90;;;;;;5030515;28;20121;-88
2021/01/05 07:01:53;;;;;;;5.65;2.65;;;3.20;99.90;;;;;;5020085;28;20124;-88
2021/01/05 07:04:19;;;;;;;4.47;2.60;;;3.20;99.90;;;;;;5029533;28;20128;-89
2021/01/05 07:06:48;;;;;;;4.47;2.47;;;3.20;99.90;;;;;;5030576;28;20045;-88
2021/01/05 07:09:16;;;;;;;6.70;2.45;;;3.20;99.90;;;;;;5028116;28;20484;-87
2021/01/05 07:11:43;;;;;;;4.78;2.50;;;3.20;99.90;;;;;;5020595;28;20037;-88
2021/01/05 07:14:10;;;;;;;5.35;2.40;;;3.20;99.90;;;;;;5014364;28;20050;-88
2021/01/05 07:16:36;;;;;;;8.95;2.90;;;3.10;99.90;;;;;;5010435;28;20240;-88
2021/01/05 07:19:02;;;;;;;4.25;2.40;;;3.20;99.90;;;;;;5023517;28;20479;-89
2021/01/05 07:21:27;;;;;;;2.60;2.40;;;3.20;99.90;;;;;;5014653;28;20034;-90
2021/01/05 07:23:53;;;;;;;5.78;2.28;;;3.20;99.90;;;;;;5006320;28;20697;-88
2021/01/05 07:26:19;;;;;;;3.38;2.42;;;3.20;99.90;;;;;;5028819;28;20029;-87
2021/01/05 07:28:45;;;;;;;6.40;2.40;;;3.20;99.90;;;;;;5020570;28;20061;-87
2021/01/05 07:31:11;;;;;;;4.13;2.47;;;3.20;99.90;;;;;;5022670;28;20065;-88
2021/01/05 07:33:40;;;;;;;3.20;2.33;;;3.20;99.90;;;;;;4999030;28;20092;-90
2021/01/05 07:36:08;;;;;;;6.00;2.38;;;3.30;99.90;;;;;;5009168;28;20048;-86
2021/01/05 07:38:34;;;;;;;3.83;2.40;;;3.20;99.90;;;;;;5010098;28;20069;-87
2021/01/05 07:41:00;;;;;;;6.55;2.78;;;3.20;99.90;;;;;;5009150;28;20033;-87
2021/01/05 07:43:25;;;;;;;6.22;2.97;;;3.00;99.90;;;;;;5025083;28;20070;-87
2021/01/05 07:45:51;;;;;;;7.22;2.70;;;3.10;99.90;;;;;;5010888;28;20486;-88
2021/01/05 07:48:17;;;;;;;6.32;2.55;;;3.10;99.90;;;;;;5022602;28;20289;-87
2021/01/05 07:50:43;;;;;;;4.63;2.75;;;3.10;99.90;;;;;;4999468;28;20066;-87
2021/01/05 07:53:08;;;;;;;2.60;2.40;;;3.20;99.90;;;;;;5003989;28;20483;-89
2021/01/05 07:55:34;;;;;;;4.28;2.22;;;3.10;99.90;;;;;;5016886;28;20807;-89
2021/01/05 07:58:00;;;;;;;3.33;2.22;;;3.10;99.90;;;;;;5007448;28;20045;-87
2021/01/05 08:00:28;;;;;;;6.75;2.22;;;3.00;99.90;;;;;;5011551;28;20049;-88
2021/01/05 08:02:55;;;;;;;4.28;2.38;;;3.00;99.90;;;;;;5028468;28;20103;-88
2021/01/05 08:05:23;;;;;;;2.90;2.58;;;3.10;99.90;;;;;;5010999;28;20117;-89
2021/01/05 08:07:49;;;;;;;3.22;2.63;;;2.90;99.90;;;;;;5027883;28;20041;-88
2021/01/05 08:10:16;;;;;;;8.10;2.38;;;2.80;99.90;;;;;;5017106;28;20048;-89
2021/01/05 08:12:43;;;;;;;4.30;2.65;;;2.80;99.90;;;;;;5028501;28;20042;-87
2021/01/05 08:15:13;;;;;;;3.90;2.88;;;2.80;99.90;;;;;;5026986;28;20049;-88
2021/01/05 08:17:38;;;;;;;6.22;2.70;;;2.80;99.90;;;;;;5026806;28;20425;-90
2021/01/05 08:20:05;;;;;;;3.03;2.30;;;2.90;99.90;;;;;;5011754;28;20115;-88
2021/01/05 08:22:30;;;;;;;3.35;2.85;;;2.90;99.90;;;;;;5002317;28;20044;-90
2021/01/05 08:24:56;;;;;;;4.13;2.25;;;2.80;99.90;;;;;;5028418;28;20041;-89
2021/01/05 08:27:22;;;;;;;7.43;3.00;;;2.90;99.90;;;;;;5024237;28;20137;-89
2021/01/05 08:29:48;;;;;;;6.80;2.97;;;2.90;99.90;;;;;;5028360;28;20118;-88
2021/01/05 08:32:14;;;;;;;9.65;2.97;;;2.90;99.90;;;;;;5028605;28;20120;-91
2021/01/05 08:34:40;;;;;;;3.55;2.30;;;2.80;99.90;;;;;;5011540;28;20584;-90
2021/01/05 08:37:06;;;;;;;8.85;3.10;;;2.90;99.90;;;;;;5028022;28;20529;-92
2021/01/05 08:39:31;;;;;;;5.35;3.03;;;2.90;99.90;;;;;;5011995;28;20478;-92
2021/01/05 08:41:57;;;;;;;3.88;2.75;;;2.80;99.90;;;;;;5012272;28;20060;-91
2021/01/05 08:44:24;;;;;;;7.18;2.80;;;2.90;99.90;;;;;;5010726;28;20690;-93
2021/01/05 08:46:50;;;;;;;6.78;3.05;;;2.80;99.90;;;;;;5028169;28;20099;-90
2021/01/05 08:49:16;;;;;;;5.57;3.42;;;2.80;99.90;;;;;;5009994;28;20542;-95
2021/01/05 08:51:42;;;;;;;4.32;2.00;;;2.90;99.90;;;;;;5009376;28;20034;-93
2021/01/05 08:54:08;;;;;;;6.95;2.78;;;2.80;99.90;;;;;;5012464;28;20803;-92
2021/01/05 08:56:34;;;;;;;4.97;2.70;;;2.80;99.90;;;;;;5020419;28;20038;-92
2021/01/05 08:59:00;;;;;;;10.82;3.42;;;2.90;99.90;;;;;;5027256;28;20371;-93
2021/01/05 09:01:25;;;;;;;5.82;3.65;;;2.80;99.90;;;;;;5021996;28;20336;-95
2021/01/05 09:03:51;;;;;;;8.13;4.07;;;2.80;99.90;;;;;;5025370;28;20045;-93
2021/01/05 09:06:24;;;;;;;8.77;3.28;;;2.90;99.90;;;;;;5010239;28;20025;-91
2021/01/05 09:08:50;;;;;;;8.57;4.05;;;3.00;99.90;;;;;;5012635;28;20493;-92
2021/01/05 09:11:22;;;;;;;15.77;4.15;;;2.80;99.90;;;;;;4998732;28;20030;-93
2021/01/05 09:13:48;;;;;;;7.57;4.13;;;2.90;99.90;;;;;;5023125;28;20080;-91
2021/01/05 09:16:29;;;;;;;11.43;3.60;;;2.90;99.90;;;;;;5028608;28;20041;-92
2021/01/05 09:18:56;;;;;;;8.02;4.65;;;2.90;99.90;;;;;;4995498;28;20048;-92
2021/01/05 09:21:23;;;;;;;5.32;3.55;;;2.90;99.90;;;;;;5028331;28;20033;-95
2021/01/05 09:23:54;;;;;;;8.48;3.22;;;3.00;99.90;;;;;;5007766;28;20116;-90
2021/01/05 09:26:24;;;;;;;;;;;3.00;99.90;;;;;;5025185;28;20034;-92
2021/01/05 09:28:50;;;;;;;14.85;3.70;;;3.00;99.90;;;;;;5024785;28;19916;-93
2021/01/05 09:31:18;;;;;;;6.47;3.50;;;3.00;99.90;;;;;;5025118;28;20535;-90
2021/01/05 09:33:45;;;;;;;4.35;2.90;;;3.10;99.90;;;;;;5017983;28;20807;-91
2021/01/05 09:36:12;;;;;;;7.47;3.67;;;3.10;99.90;;;;;;5025726;28;20125;-90
2021/01/05 09:38:40;;;;;;;10.95;3.63;;;3.10;99.90;;;;;;5028807;28;20053;-91
2021/01/05 09:41:07;;;;;;;9.85;3.47;;;3.10;99.90;;;;;;5027397;28;20034;-88
2021/01/05 09:43:36;;;;;;;11.23;3.90;;;3.20;99.90;;;;;;5007065;28;20510;-91
2021/01/05 09:46:02;;;;;;;8.07;3.83;;;3.20;99.90;;;;;;5016063;28;20108;-92
2021/01/05 09:48:28;;;;;;;9.98;3.75;;;3.20;99.90;;;;;;5010414;28;20029;-92
2021/01/05 09:50:54;;;;;;;8.05;4.25;;;3.20;99.90;;;;;;5013505;28;20049;-86
2021/01/05 09:53:19;;;;;;;8.10;4.05;;;3.30;99.90;;;;;;5016126;28;20041;-91
2021/01/05 09:55:45;;;;;;;12.93;3.50;;;3.30;99.90;;;;;;4995178;28;20042;-91
2021/01/05 09:58:11;;;;;;;7.53;3.42;;;3.30;99.90;;;;;;5010640;28;20048;-90
2021/01/05 10:00:37;;;;;;;14.20;4.18;;;3.40;99.90;;;;;;5032795;28;20120;-90
2021/01/05 10:03:03;;;;;;;7.93;3.17;;;3.40;99.90;;;;;;5035140;28;20052;-92
2021/01/05 10:05:29;;;;;;;12.65;3.35;;;3.40;99.90;;;;;;5030595;28;20029;-91
2021/01/05 10:07:56;;;;;;;7.20;3.65;;;3.40;99.90;;;;;;5031890;28;20052;-92
2021/01/05 10:10:26;;;;;;;5.20;2.97;;;3.40;99.90;;;;;;5029612;28;20038;-91
2021/01/05 10:12:53;;;;;;;4.53;3.08;;;3.40;99.90;;;;;;5018814;28;20806;-91
2021/01/05 10:15:21;;;;;;;13.18;3.67;;;3.50;99.90;;;;;;5014734;28;20205;-90
2021/01/05 10:17:48;;;;;;;10.38;3.60;;;3.40;99.90;;;;;;4991180;28;20049;-92
2021/01/05 10:20:16;;;;;;;6.20;3.40;;;3.40;99.90;;;;;;5020589;28;20071;-88
2021/01/05 10:22:42;;;;;;;8.13;3.33;;;3.50;99.90;;;;;;5031774;28;20435;-90
2021/01/05 10:25:10;;;;;;;9.15;2.97;;;3.50;99.90;;;;;;5030262;28;20033;-90
2021/01/05 10:27:36;;;;;;;5.95;2.60;;;3.40;99.90;;;;;;5029668;28;20556;-94
2021/01/05 10:30:05;;;;;;;5.72;2.80;;;3.40;99.90;;;;;;5031732;28;20096;-90
2021/01/05 10:32:32;;;;;;;6.45;2.67;;;3.50;99.90;;;;;;5031447;28;20033;-92
2021/01/05 10:34:57;;;;;;;4.10;2.47;;;3.50;99.90;;;;;;5030663;28;20048;-90
2021/01/05 10:37:23;;;;;;;7.22;2.70;;;3.50;99.90;;;;;;5029159;28;20045;-90
2021/01/05 10:39:49;;;;;;;8.07;3.20;;;3.60;99.90;;;;;;4993925;28;20049;-89
2021/01/05 10:42:15;;;;;;;5.25;2.88;;;3.60;99.90;;;;;;4998187;28;21386;-88
2021/01/05 10:44:40;;;;;;;6.30;2.40;;;3.60;99.90;;;;;;5023761;28;20072;-88
2021/01/05 10:47:07;;;;;;;4.80;2.60;;;3.70;99.90;;;;;;4993086;28;20460;-87
2021/01/05 10:49:33;;;;;;;6.90;2.83;;;3.60;99.90;;;;;;5024948;28;20632;-90
2021/01/05 10:52:02;;;;;;;6.10;2.47;;;3.60;99.90;;;;;;4997080;28;20071;-91
2021/01/05 10:54:29;;;;;;;3.17;2.15;;;3.60;99.90;;;;;;5019313;28;20462;-88
2021/01/05 10:57:00;;;;;;;10.30;2.70;;;3.60;99.90;;;;;;5007610;28;20060;-88
2021/01/05 10:59:27;;;;;;;4.40;2.15;;;3.70;99.90;;;;;;5023809;28;20064;-87
2021/01/05 11:01:57;;;;;;;14.80;3.10;;;3.70;99.90;;;;;;5019206;28;20490;-86
2021/01/05 11:04:27;;;;;;;5.50;2.20;;;3.70;99.90;;;;;;5027485;28;20061;-90
2021/01/05 11:07:10;;;;;;;5.03;2.17;;;3.70;99.90;;;;;;5030021;28;20091;-88
2021/01/05 11:09:36;;;;;;;3.80;2.08;;;3.70;99.90;;;;;;5030086;28;20169;-90
2021/01/05 11:12:05;;;;;;;3.83;2.33;;;3.80;99.90;;;;;;5029401;28;20761;-90
2021/01/05 11:14:32;;;;;;;8.18;2.47;;;3.70;99.90;;;;;;5009265;28;20081;-91
2021/01/05 11:16:58;;;;;;;6.72;2.75;;;3.80;99.90;;;;;;5021469;28;20037;-90
2021/01/05 11:19:25;;;;;;;5.10;2.25;;;3.70;99.90;;;;;;5028889;28;20037;-91
2021/01/05 11:21:51;;;;;;;4.45;2.45;;;3.80;99.90;;;;;;5030858;28;20095;-91
2021/01/05 11:24:18;;;;;;;3.47;2.40;;;3.80;99.90;;;;;;5014174;28;20499;-89
2021/01/05 11:26:44;;;;;;;6.55;2.20;;;3.80;99.90;;;;;;4997973;28;20041;-92
2021/01/05 11:29:10;;;;;;;4.47;1.92;;;3.80;99.90;;;;;;5009522;28;20059;-90
2021/01/05 11:31:36;;;;;;;4.78;2.50;;;3.70;99.90;;;;;;5008367;28;20682;-87
2021/01/05 11:34:03;;;;;;;5.90;2.83;;;3.80;99.90;;;;;;5002562;28;20484;-90
2021/01/05 11:36:30;;;;;;;6.00;2.70;;;3.80;99.90;;;;;;5012316;28;20052;-89
2021/01/05 11:38:57;;;;;;;10.68;2.42;;;3.80;99.90;;;;;;5000656;28;20109;-89
2021/01/05 11:41:32;;;;;;;2.60;2.00;;;3.80;99.90;;;;;;5005657;28;20073;-89
2021/01/05 11:43:59;;;;;;;7.15;2.55;;;3.80;99.90;;;;;;5010493;28;20045;-90
2021/01/05 11:46:26;;;;;;;2.97;2.00;;;3.80;99.90;;;;;;5012296;28;20044;-89
2021/01/05 11:48:52;;;;;;;3.05;2.10;;;3.80;99.90;;;;;;5009596;28;20549;-89
2021/01/05 11:51:28;;;;;;;3.88;2.17;;;3.90;99.90;;;;;;5005375;28;20402;-88
2021/01/05 11:53:53;;;;;;;3.63;2.30;;;3.90;99.90;;;;;;5018089;28;20103;-92
2021/01/05 11:56:31;;;;;;;6.18;2.40;;;3.80;99.90;;;;;;5036263;28;20421;-87
2021/01/05 11:58:57;;;;;;;4.50;2.15;;;3.90;99.90;;;;;;5024748;28;20094;-86
2021/01/05 12:01:26;;;;;;;3.65;2.17;;;3.90;99.90;;;;;;5023990;28;20041;-87
2021/01/05 12:03:53;;;;;;;4.55;2.53;;;3.90;99.90;;;;;;5019619;28;20049;-87
2021/01/05 12:06:23;;;;;;;4.60;2.80;;;3.90;99.90;;;;;;5017601;28;20045;-88
2021/01/05 12:08:50;;;;;;;;;;;3.90;99.90;;;;;;5008353;28;20045;-89
2021/01/05 12:11:26;;;;;;;8.27;2.70;;;3.80;99.90;;;;;;5026457;28;19940;-87
2021/01/05 12:13:53;;;;;;;4.97;2.40;;;3.80;99.90;;;;;;5016016;28;20037;-88
2021/01/05 12:16:38;;;;;;;7.90;3.08;;;3.90;99.90;;;;;;5021866;28;20038;-91
2021/01/05 12:19:11;;;;;;;5.07;2.70;;;3.90;99.90;;;;;;5021492;28;20038;-88
2021/01/05 12:21:40;;;;;;;5.35;2.38;;;3.90;99.90;;;;;;5023312;28;20057;-91
2021/01/05 12:24:09;;;;;;;8.73;4.10;;;3.90;99.90;;;;;;5021472;28;20475;-88
2021/01/05 12:26:37;;;;;;;7.25;2.65;;;3.90;99.90;;;;;;5025840;28;20099;-89
2021/01/05 12:29:09;;;;;;;6.75;2.90;;;3.90;99.90;;;;;;5027979;28;20072;-91
2021/01/05 12:31:40;;;;;;;5.35;2.70;;;3.90;99.90;;;;;;5021697;28;20061;-89
2021/01/05 12:34:08;;;;;;;7.13;2.88;;;3.90;99.90;;;;;;5026757;28;20040;-89
2021/01/05 12:36:37;;;;;;;4.78;2.88;;;3.80;99.90;;;;;;5022550;28;20082;-90
2021/01/05 12:39:04;;;;;;;10.05;2.60;;;3.90;99.90;;;;;;5022743;28;20124;-89
2021/01/05 12:41:36;;;;;;;12.05;3.40;;;3.90;99.90;;;;;;5023259;28;20506;-89
2021/01/05 12:44:04;;;;;;;7.93;3.03;;;3.90;99.90;;;;;;5026896;28;20045;-90
2021/01/05 12:46:32;;;;;;;7.03;2.90;;;3.90;99.90;;;;;;5024903;28;20164;-89
2021/01/05 12:48:59;;;;;;;6.72;2.78;;;3.90;99.90;;;;;;5014150;28;20040;-92
2021/01/05 12:51:26;;;;;;;7.65;3.20;;;3.90;99.90;;;;;;5015123;28;20037;-88
2021/01/05 12:53:52;;;;;;;8.02;2.80;;;3.90;99.90;;;;;;5020507;28;20471;-89
2021/01/05 12:56:18;;;;;;;6.20;3.03;;;3.90;99.90;;;;;;5028969;28;20079;-91
2021/01/05 12:58:44;;;;;;;8.80;2.35;;;3.90;99.90;;;;;;5007439;28;20042;-91
2021/01/05 13:01:10;;;;;;;2.67;2.10;;;3.90;99.90;;;;;;5021625;28;20422;-90
2021/01/05 13:03:36;;;;;;;8.50;2.67;;;3.90;99.90;;;;;;5003848;28;20088;-94
2021/01/05 13:06:02;;;;;;;6.35;2.13;;;3.90;99.90;;;;;;5023344;28;20041;-89
2021/01/05 13:08:28;;;;;;;5.82;2.25;;;4.00;99.90;;;;;;5027481;28;20113;-88
2021/01/05 13:10:53;;;;;;;4.43;2.75;;;3.90;99.90;;;;;;5007850;28;20038;-89
2021/01/05 13:13:19;;;;;;;7.43;2.50;;;3.90;99.90;;;;;;5018202;28;20044;-90